createdAt,value
2018-09-04T00:00:06.876Z,62.63
2018-09-04T00:00:37.996Z,62.00
2018-09-04T00:01:09.121Z,62.60
2018-09-04T00:01:40.300Z,62.62
2018-09-04T00:02:11.526Z,63.26
2018-09-04T00:02:42.644Z,62.77
2018-09-04T00:03:13.812Z,62.92
2018-09-04T00:03:44.964Z,63.61
2018-09-04T00:04:16.161Z,62.97
2018-09-04T00:04:47.335Z,63.29
2018-09-04T00:05:18.455Z,63.78
2018-09-04T00:05:49.623Z,63.58
2018-09-04T00:06:20.865Z,63.26
2018-09-04T00:06:52.060Z,63.21
2018-09-04T00:07:23.238Z,63.46
2018-09-04T00:07:54.352Z,63.63
2018-09-04T00:08:25.544Z,63.16
2018-09-04T00:08:56.681Z,63.32
2018-09-04T00:09:27.845Z,63.10
2018-09-04T00:09:58.964Z,63.07
2018-09-04T00:10:30.085Z,61.52
2018-09-04T00:11:01.252Z,62.77
2018-09-04T00:11:32.368Z,62.25
2018-09-04T00:12:03.563Z,62.75
2018-09-04T00:12:34.684Z,63.15
2018-09-04T00:13:05.796Z,63.46
2018-09-04T00:13:36.947Z,63.23
2018-09-04T00:14:08.156Z,63.98
2018-09-04T00:14:39.286Z,63.21
2018-09-04T00:15:10.463Z,63.70
2018-09-04T00:15:41.576Z,63.63
2018-09-04T00:16:12.746Z,64.29
2018-09-04T00:16:43.864Z,64.43
2018-09-04T00:17:14.988Z,63.91
2018-09-04T00:17:46.114Z,64.72
2018-09-04T00:18:17.342Z,63.98
2018-09-04T00:18:48.468Z,65.43
2018-09-04T00:19:19.684Z,65.32
2018-09-04T00:19:50.848Z,65.22
2018-09-04T00:20:22.077Z,64.88
2018-09-04T00:20:53.255Z,64.36
2018-09-04T00:21:24.384Z,64.99
2018-09-04T00:21:55.552Z,65.01
2018-09-04T00:22:26.680Z,64.72
2018-09-04T00:22:57.803Z,64.40
2018-09-04T00:23:28.968Z,64.93
2018-09-04T00:24:00.090Z,64.20
2018-09-04T00:24:31.256Z,64.75
2018-09-04T00:25:02.436Z,64.05
2018-09-04T00:25:33.668Z,64.60
2018-09-04T00:26:04.792Z,64.53
2018-09-04T00:26:35.966Z,64.51
2018-09-04T00:27:07.128Z,64.74
2018-09-04T00:27:38.272Z,65.22
2018-09-04T00:28:09.384Z,64.59
2018-09-04T00:28:40.549Z,64.75
2018-09-04T00:29:11.727Z,65.10
2018-09-04T00:29:42.873Z,63.69
2018-09-04T00:30:13.987Z,64.71
2018-09-04T00:30:45.152Z,64.81
2018-09-04T00:31:16.276Z,64.96
2018-09-04T00:31:47.390Z,65.14
2018-09-04T00:32:18.565Z,65.23
2018-09-04T00:32:49.693Z,65.50
2018-09-04T00:33:20.864Z,65.96
2018-09-04T00:33:52.038Z,65.42
2018-09-04T00:34:23.225Z,65.49
2018-09-04T00:34:54.457Z,64.76
2018-09-04T00:35:25.638Z,65.19
2018-09-04T00:35:56.759Z,65.45
2018-09-04T00:36:27.934Z,65.24
2018-09-04T00:36:59.043Z,64.09
2018-09-04T00:37:30.208Z,63.26
2018-09-04T00:38:01.364Z,64.75
2018-09-04T00:38:32.536Z,65.13
2018-09-04T00:39:03.657Z,65.16
2018-09-04T00:39:34.819Z,65.06
2018-09-04T00:40:05.954Z,65.24
2018-09-04T00:40:37.159Z,64.89
2018-09-04T00:41:08.289Z,64.52
2018-09-04T00:41:39.469Z,64.61
2018-09-04T00:42:10.685Z,64.99
2018-09-04T00:42:41.804Z,64.42
2018-09-04T00:43:12.928Z,64.72
2018-09-04T00:43:44.189Z,65.05
2018-09-04T00:44:15.400Z,64.83
2018-09-04T00:44:46.517Z,64.12
2018-09-04T00:45:17.750Z,63.94
2018-09-04T00:45:48.996Z,65.05
2018-09-04T00:46:20.229Z,65.57
2018-09-04T00:46:51.436Z,65.99
2018-09-04T00:47:22.587Z,65.09
2018-09-04T00:47:53.711Z,65.79
2018-09-04T00:48:24.883Z,64.83
2018-09-04T00:48:56.040Z,65.24
2018-09-04T00:49:27.183Z,64.93
2018-09-04T00:49:58.358Z,65.35
2018-09-04T00:50:29.600Z,63.75
2018-09-04T00:51:00.770Z,63.22
2018-09-04T00:51:31.893Z,63.23
2018-09-04T00:52:03.005Z,65.11
2018-09-04T00:52:34.186Z,64.93
2018-09-04T00:53:05.402Z,65.39
2018-09-04T00:53:36.514Z,65.36
2018-09-04T00:54:07.672Z,64.72
2018-09-04T00:54:38.834Z,64.65
2018-09-04T00:55:10.072Z,64.62
2018-09-04T00:55:41.264Z,65.48
2018-09-04T00:56:12.497Z,64.72
2018-09-04T00:56:43.661Z,64.42
2018-09-04T00:57:14.828Z,63.14
2018-09-04T00:57:46.064Z,63.56
2018-09-04T00:58:17.191Z,62.20
2018-09-04T00:58:48.355Z,63.06
2018-09-04T00:59:19.652Z,64.30
2018-09-04T00:59:50.825Z,63.91
2018-09-04T01:00:21.991Z,65.29
2018-09-04T01:00:53.186Z,65.11
2018-09-04T01:01:24.419Z,65.61
2018-09-04T01:01:55.600Z,64.80
2018-09-04T01:02:26.718Z,64.87
2018-09-04T01:02:57.837Z,63.85
2018-09-04T01:03:29.085Z,62.91
2018-09-04T01:04:00.265Z,64.01
2018-09-04T01:04:31.510Z,63.66
2018-09-04T01:05:02.672Z,64.13
2018-09-04T01:05:33.854Z,64.65
2018-09-04T01:06:05.087Z,65.29
2018-09-04T01:06:36.272Z,65.16
2018-09-04T01:07:07.464Z,64.73
2018-09-04T01:07:38.583Z,64.28
2018-09-04T01:08:09.748Z,65.18
2018-09-04T01:08:40.964Z,65.52
2018-09-04T01:09:12.075Z,65.38
2018-09-04T01:09:43.198Z,64.62
2018-09-04T01:10:14.376Z,63.24
2018-09-04T01:10:45.494Z,65.41
2018-09-04T01:11:16.669Z,65.42
2018-09-04T01:11:47.787Z,65.16
2018-09-04T01:12:19.046Z,65.50
2018-09-04T01:12:50.181Z,65.97
2018-09-04T01:13:21.360Z,66.39
2018-09-04T01:13:52.622Z,66.14
2018-09-04T01:14:23.788Z,65.97
2018-09-04T01:14:55.005Z,66.75
2018-09-04T01:15:26.185Z,66.15
2018-09-04T01:15:57.300Z,65.33
2018-09-04T01:16:28.483Z,65.24
2018-09-04T01:16:59.714Z,66.33
2018-09-04T01:17:30.946Z,65.90
2018-09-04T01:18:02.065Z,66.72
2018-09-04T01:18:33.184Z,66.96
2018-09-04T01:19:04.304Z,67.06
2018-09-04T01:19:35.429Z,66.48
2018-09-04T01:20:06.564Z,67.40
2018-09-04T01:20:37.733Z,67.62
2018-09-04T01:21:08.859Z,66.92
2018-09-04T01:21:40.026Z,66.57
2018-09-04T01:22:11.155Z,66.53
2018-09-04T01:22:42.320Z,67.01
2018-09-04T01:23:13.496Z,67.51
2018-09-04T01:23:44.657Z,66.57
2018-09-04T01:24:15.782Z,66.73
2018-09-04T01:24:46.952Z,66.63
2018-09-04T01:25:18.070Z,67.07
2018-09-04T01:25:49.279Z,66.55
2018-09-04T01:26:20.457Z,67.24
2018-09-04T01:26:51.628Z,67.14
2018-09-04T01:27:22.752Z,66.12
2018-09-04T01:27:53.992Z,66.53
2018-09-04T01:28:25.130Z,65.53
2018-09-04T01:28:56.282Z,64.39
2018-09-04T01:29:27.445Z,64.86
2018-09-04T01:29:59.144Z,65.47
2018-09-04T01:30:30.424Z,66.37
2018-09-04T01:31:01.545Z,65.29
2018-09-04T01:31:32.782Z,65.92
2018-09-04T01:32:03.910Z,65.63
2018-09-04T01:32:35.077Z,65.96
2018-09-04T01:33:06.296Z,66.71
2018-09-04T01:33:37.534Z,66.47
2018-09-04T01:34:08.745Z,66.04
2018-09-04T01:34:39.932Z,66.93
2018-09-04T01:35:11.109Z,67.25
2018-09-04T01:35:42.348Z,66.38
2018-09-04T01:36:13.570Z,65.64
2018-09-04T01:36:44.744Z,64.56
2018-09-04T01:37:15.880Z,66.04
2018-09-04T01:37:47.044Z,67.03
2018-09-04T01:38:18.261Z,66.28
2018-09-04T01:38:49.475Z,66.60
2018-09-04T01:39:20.644Z,66.99
2018-09-04T01:39:51.832Z,66.34
2018-09-04T01:40:23.107Z,67.26
2018-09-04T01:40:54.288Z,67.46
2018-09-04T01:41:25.434Z,67.07
2018-09-04T01:41:56.601Z,64.98
2018-09-04T01:42:27.797Z,65.59
2018-09-04T01:42:58.972Z,66.08
2018-09-04T01:43:30.201Z,67.26
2018-09-04T01:44:01.372Z,66.53
2018-09-04T01:44:32.493Z,66.44
2018-09-04T01:45:03.661Z,66.83
2018-09-04T01:45:34.772Z,66.75
2018-09-04T01:46:05.999Z,66.43
2018-09-04T01:46:37.115Z,66.71
2018-09-04T01:47:08.280Z,66.58
2018-09-04T01:47:39.408Z,66.90
2018-09-04T01:48:10.528Z,66.63
2018-09-04T01:48:41.653Z,67.08
2018-09-04T01:49:12.769Z,67.22
2018-09-04T01:49:44.000Z,66.62
2018-09-04T01:50:15.236Z,67.03
2018-09-04T01:50:46.362Z,66.09
2018-09-04T01:51:17.576Z,66.78
2018-09-04T01:51:48.814Z,66.85
2018-09-04T01:52:19.993Z,66.80
2018-09-04T01:52:51.167Z,66.20
2018-09-04T01:53:22.345Z,66.29
2018-09-04T01:53:53.527Z,66.81
2018-09-04T01:54:24.702Z,66.08
2018-09-04T01:54:55.881Z,66.80
2018-09-04T01:55:27.109Z,66.42
2018-09-04T01:55:58.345Z,66.26
2018-09-04T01:56:29.597Z,67.03
2018-09-04T01:57:00.772Z,66.85
2018-09-04T01:57:31.891Z,66.91
2018-09-04T01:58:03.083Z,67.01
2018-09-04T01:58:34.269Z,66.54
2018-09-04T01:59:05.437Z,67.05
2018-09-04T01:59:36.594Z,66.51
2018-09-04T02:00:07.766Z,66.91
2018-09-04T02:00:38.949Z,65.03
2018-09-04T02:01:10.133Z,65.59
2018-09-04T02:01:41.310Z,63.81
2018-09-04T02:02:12.539Z,65.15
2018-09-04T02:02:43.724Z,63.77
2018-09-04T02:03:14.848Z,65.54
2018-09-04T02:03:46.045Z,65.54
2018-09-04T02:04:17.170Z,66.05
2018-09-04T02:04:48.278Z,66.18
2018-09-04T02:05:19.506Z,65.72
2018-09-04T02:05:50.624Z,65.89
2018-09-04T02:06:21.737Z,66.46
2018-09-04T02:06:52.880Z,66.35
2018-09-04T02:07:24.056Z,65.87
2018-09-04T02:07:55.220Z,66.07
2018-09-04T02:08:26.402Z,66.69
2018-09-04T02:08:57.524Z,66.89
2018-09-04T02:09:28.756Z,66.98
2018-09-04T02:09:59.993Z,66.14
2018-09-04T02:10:31.213Z,66.22
2018-09-04T02:11:02.344Z,66.90
2018-09-04T02:11:33.455Z,67.24
2018-09-04T02:12:04.628Z,67.31
2018-09-04T02:12:35.746Z,67.15
2018-09-04T02:13:06.921Z,65.59
2018-09-04T02:13:38.148Z,65.64
2018-09-04T02:14:09.336Z,65.62
2018-09-04T02:14:40.458Z,66.22
2018-09-04T02:15:11.567Z,65.83
2018-09-04T02:15:42.769Z,65.80
2018-09-04T02:16:13.945Z,66.03
2018-09-04T02:16:45.068Z,66.22
2018-09-04T02:17:16.244Z,66.24
2018-09-04T02:17:47.356Z,65.88
2018-09-04T02:18:18.520Z,65.04
2018-09-04T02:18:49.753Z,65.61
2018-09-04T02:19:20.890Z,66.19
2018-09-04T02:19:52.109Z,65.25
2018-09-04T02:20:23.284Z,64.14
2018-09-04T02:20:54.453Z,64.78
2018-09-04T02:21:25.639Z,64.94
2018-09-04T02:21:56.808Z,64.90
2018-09-04T02:22:27.978Z,64.73
2018-09-04T02:22:59.209Z,64.04
2018-09-04T02:23:30.384Z,64.00
2018-09-04T02:24:01.517Z,63.17
2018-09-04T02:24:32.637Z,64.18
2018-09-04T02:25:03.753Z,64.15
2018-09-04T02:25:34.864Z,63.32
2018-09-04T02:26:06.077Z,64.11
2018-09-04T02:26:37.195Z,63.20
2018-09-04T02:27:08.307Z,63.03
2018-09-04T02:27:39.453Z,63.19
2018-09-04T02:28:10.572Z,62.89
2018-09-04T02:28:41.741Z,63.69
2018-09-04T02:29:12.931Z,62.72
2018-09-04T02:29:44.092Z,62.77
2018-09-04T02:30:15.243Z,62.45
2018-09-04T02:30:46.356Z,63.68
2018-09-04T02:31:17.502Z,63.47
2018-09-04T02:31:48.718Z,63.77
2018-09-04T02:32:19.929Z,63.04
2018-09-04T02:32:51.118Z,63.28
2018-09-04T02:33:22.293Z,63.46
2018-09-04T02:33:53.480Z,62.98
2018-09-04T02:34:24.663Z,63.30
2018-09-04T02:34:55.798Z,62.87
2018-09-04T02:35:26.944Z,62.97
2018-09-04T02:35:58.124Z,62.48
2018-09-04T02:36:29.279Z,62.84
2018-09-04T02:37:00.546Z,62.67
2018-09-04T02:37:31.668Z,62.18
2018-09-04T02:38:02.791Z,62.08
2018-09-04T02:38:33.970Z,61.89
2018-09-04T02:39:05.092Z,62.23
2018-09-04T02:39:36.264Z,62.75
2018-09-04T02:40:07.432Z,62.51
2018-09-04T02:40:38.705Z,62.87
2018-09-04T02:41:09.861Z,63.15
2018-09-04T02:41:41.048Z,63.08
2018-09-04T02:42:12.173Z,62.40
2018-09-04T02:42:43.304Z,62.58
2018-09-04T02:43:14.432Z,62.86
2018-09-04T02:43:45.657Z,62.16
2018-09-04T02:44:16.841Z,62.01
2018-09-04T02:44:48.004Z,62.80
2018-09-04T02:45:19.179Z,62.02
2018-09-04T02:45:50.320Z,62.55
2018-09-04T02:46:21.433Z,61.96
2018-09-04T02:46:52.740Z,62.03
2018-09-04T02:47:23.853Z,62.20
2018-09-04T02:47:55.090Z,61.92
2018-09-04T02:48:26.289Z,61.92
2018-09-04T02:48:57.474Z,62.37
2018-09-04T02:49:28.650Z,62.30
2018-09-04T02:49:59.819Z,61.91
2018-09-04T02:50:31.004Z,61.89
2018-09-04T02:51:02.196Z,62.58
2018-09-04T02:51:33.465Z,61.87
2018-09-04T02:52:04.707Z,61.78
2018-09-04T02:52:35.869Z,61.81
2018-09-04T02:53:07.084Z,62.02
2018-09-04T02:53:38.256Z,62.55
2018-09-04T02:54:09.428Z,62.29
2018-09-04T02:54:40.649Z,63.07
2018-09-04T02:55:11.892Z,62.39
2018-09-04T02:55:43.077Z,63.49
2018-09-04T02:56:14.193Z,62.83
2018-09-04T02:56:45.312Z,62.60
2018-09-04T02:57:16.548Z,63.25
2018-09-04T02:57:47.667Z,62.54
2018-09-04T02:58:18.775Z,62.96
2018-09-04T02:58:49.891Z,63.18
2018-09-04T02:59:21.013Z,62.54
2018-09-04T02:59:52.188Z,63.33
2018-09-04T03:00:23.408Z,63.05
2018-09-04T03:00:54.592Z,63.65
2018-09-04T03:01:25.780Z,63.58
2018-09-04T03:01:56.912Z,63.63
2018-09-04T03:02:28.115Z,63.52
2018-09-04T03:02:59.238Z,63.62
2018-09-04T03:03:30.431Z,63.40
2018-09-04T03:04:01.613Z,63.92
2018-09-04T03:04:32.789Z,63.66
2018-09-04T03:05:03.914Z,64.02
2018-09-04T03:05:35.032Z,63.87
2018-09-04T03:06:06.197Z,63.64
2018-09-04T03:06:37.371Z,64.32
2018-09-04T03:07:08.500Z,63.70
2018-09-04T03:07:39.756Z,63.93
2018-09-04T03:08:10.933Z,64.07
2018-09-04T03:08:42.696Z,64.71
2018-09-04T03:09:13.818Z,63.91
2018-09-04T03:09:45.086Z,64.71
2018-09-04T03:10:16.212Z,64.49
2018-09-04T03:10:47.330Z,64.12
2018-09-04T03:11:18.450Z,64.65
2018-09-04T03:11:49.679Z,64.76
2018-09-04T03:12:20.865Z,64.87
2018-09-04T03:12:52.108Z,64.52
2018-09-04T03:13:23.256Z,65.43
2018-09-04T03:13:54.433Z,65.46
2018-09-04T03:14:25.636Z,65.44
2018-09-04T03:14:56.837Z,65.23
2018-09-04T03:15:27.964Z,66.05
2018-09-04T03:15:59.129Z,65.32
2018-09-04T03:16:30.391Z,65.41
2018-09-04T03:17:01.548Z,65.48
2018-09-04T03:17:32.728Z,65.99
2018-09-04T03:18:03.844Z,66.24
2018-09-04T03:18:34.953Z,65.52
2018-09-04T03:19:06.072Z,65.48
2018-09-04T03:19:37.275Z,65.93
2018-09-04T03:20:08.463Z,65.69
2018-09-04T03:20:39.576Z,65.82
2018-09-04T03:21:10.680Z,66.40
2018-09-04T03:21:41.802Z,66.56
2018-09-04T03:22:13.022Z,66.78
2018-09-04T03:22:44.140Z,67.02
2018-09-04T03:23:15.272Z,66.72
2018-09-04T03:23:46.392Z,66.26
2018-09-04T03:24:17.617Z,66.89
2018-09-04T03:24:48.899Z,66.43
2018-09-04T03:25:20.023Z,67.16
2018-09-04T03:25:51.191Z,67.43
2018-09-04T03:26:22.310Z,67.20
2018-09-04T03:26:53.605Z,67.52
2018-09-04T03:27:24.723Z,67.32
2018-09-04T03:27:55.835Z,67.58
2018-09-04T03:28:26.999Z,67.77
2018-09-04T03:28:58.179Z,67.50
2018-09-04T03:29:29.328Z,67.79
2018-09-04T03:30:00.542Z,66.89
2018-09-04T03:30:31.731Z,67.33
2018-09-04T03:31:02.884Z,67.44
2018-09-04T03:31:34.008Z,67.18
2018-09-04T03:32:05.150Z,67.02
2018-09-04T03:32:36.369Z,66.98
2018-09-04T03:33:07.495Z,67.61
2018-09-04T03:33:38.605Z,67.80
2018-09-04T03:34:09.769Z,67.87
2018-09-04T03:34:40.979Z,67.32
2018-09-04T03:35:12.193Z,68.04
2018-09-04T03:35:43.373Z,67.33
2018-09-04T03:36:14.548Z,67.01
2018-09-04T03:36:45.693Z,67.33
2018-09-04T03:37:16.852Z,67.63
2018-09-04T03:37:48.041Z,67.20
2018-09-04T03:38:19.208Z,67.32
2018-09-04T03:38:50.320Z,67.26
2018-09-04T03:39:21.487Z,66.93
2018-09-04T03:39:52.623Z,67.34
2018-09-04T03:40:23.796Z,66.55
2018-09-04T03:40:54.908Z,66.00
2018-09-04T03:41:26.038Z,66.62
2018-09-04T03:41:57.156Z,67.47
2018-09-04T03:42:28.326Z,67.43
2018-09-04T03:42:59.485Z,66.93
2018-09-04T03:43:30.689Z,67.60
2018-09-04T03:44:01.865Z,67.55
2018-09-04T03:44:32.988Z,67.42
2018-09-04T03:45:04.118Z,66.33
2018-09-04T03:45:35.290Z,66.35
2018-09-04T03:46:06.404Z,66.67
2018-09-04T03:46:37.567Z,67.08
2018-09-04T03:47:08.691Z,66.50
2018-09-04T03:47:39.827Z,66.90
2018-09-04T03:48:10.987Z,67.09
2018-09-04T03:48:42.198Z,67.18
2018-09-04T03:49:13.349Z,67.04
2018-09-04T03:49:44.459Z,66.67
2018-09-04T03:50:15.571Z,67.00
2018-09-04T03:50:46.684Z,66.67
2018-09-04T03:51:17.796Z,66.87
2018-09-04T03:51:48.951Z,66.34
2018-09-04T03:52:20.156Z,66.11
2018-09-04T03:52:51.323Z,66.26
2018-09-04T03:53:22.436Z,66.77
2018-09-04T03:53:53.584Z,66.60
2018-09-04T03:54:24.692Z,66.55
2018-09-04T03:54:55.920Z,66.55
2018-09-04T03:55:27.101Z,66.72
2018-09-04T03:55:58.279Z,66.70
2018-09-04T03:56:29.388Z,66.88
2018-09-04T03:57:00.501Z,66.80
2018-09-04T03:57:31.897Z,66.94
2018-09-04T03:58:03.018Z,67.12
2018-09-04T03:58:34.191Z,67.42
2018-09-04T03:59:05.370Z,67.56
2018-09-04T03:59:36.486Z,67.73
2018-09-04T04:00:07.725Z,67.56
2018-09-04T04:00:38.901Z,67.02
2018-09-04T04:01:10.068Z,67.81
2018-09-04T04:01:41.194Z,67.26
2018-09-04T04:02:12.303Z,67.71
2018-09-04T04:02:43.477Z,67.76
2018-09-04T04:03:14.665Z,67.43
2018-09-04T04:03:45.843Z,67.37
2018-09-04T04:04:17.009Z,67.46
2018-09-04T04:04:48.125Z,67.44
2018-09-04T04:05:19.281Z,68.12
2018-09-04T04:05:50.496Z,68.14
2018-09-04T04:06:21.675Z,68.11
2018-09-04T04:06:52.860Z,68.62
2018-09-04T04:07:24.034Z,68.28
2018-09-04T04:07:55.147Z,68.84
2018-09-04T04:08:26.287Z,68.90
2018-09-04T04:08:57.410Z,69.22
2018-09-04T04:09:28.529Z,68.49
2018-09-04T04:09:59.636Z,69.19
2018-09-04T04:10:30.739Z,69.03
2018-09-04T04:11:01.949Z,68.60
2018-09-04T04:11:33.080Z,69.13
2018-09-04T04:12:04.262Z,69.02
2018-09-04T04:12:35.405Z,68.72
2018-09-04T04:13:06.519Z,69.22
2018-09-04T04:13:37.689Z,69.26
2018-09-04T04:14:08.859Z,69.18
2018-09-04T04:14:39.969Z,69.45
2018-09-04T04:15:11.082Z,69.38
2018-09-04T04:15:42.309Z,69.24
2018-09-04T04:16:13.424Z,69.74
2018-09-04T04:16:44.597Z,69.45
2018-09-04T04:17:15.789Z,69.16
2018-09-04T04:17:46.949Z,69.62
2018-09-04T04:18:18.120Z,69.85
2018-09-04T04:18:49.239Z,69.42
2018-09-04T04:19:20.453Z,69.02
2018-09-04T04:19:51.562Z,69.70
2018-09-04T04:20:22.723Z,69.52
2018-09-04T04:20:53.954Z,69.12
2018-09-04T04:21:25.133Z,69.65
2018-09-04T04:21:56.239Z,69.78
2018-09-04T04:22:27.401Z,69.56
2018-09-04T04:22:58.640Z,68.99
2018-09-04T04:23:29.822Z,69.56
2018-09-04T04:24:01.024Z,68.57
2018-09-04T04:24:32.200Z,68.39
2018-09-04T04:25:03.315Z,68.90
2018-09-04T04:25:34.484Z,68.14
2018-09-04T04:26:05.592Z,67.98
2018-09-04T04:26:36.699Z,67.88
2018-09-04T04:27:07.818Z,68.46
2018-09-04T04:27:38.992Z,67.77
2018-09-04T04:28:10.152Z,67.89
2018-09-04T04:28:41.271Z,67.34
2018-09-04T04:29:12.494Z,67.08
2018-09-04T04:29:43.608Z,67.42
2018-09-04T04:30:14.728Z,67.07
2018-09-04T04:30:45.888Z,66.89
2018-09-04T04:31:17.126Z,66.93
2018-09-04T04:31:48.349Z,67.42
2018-09-04T04:32:19.510Z,66.67
2018-09-04T04:32:50.709Z,67.18
2018-09-04T04:33:21.877Z,66.55
2018-09-04T04:33:53.003Z,66.84
2018-09-04T04:34:24.118Z,66.54
2018-09-04T04:34:55.333Z,66.81
2018-09-04T04:35:26.558Z,66.21
2018-09-04T04:35:57.728Z,65.90
2018-09-04T04:36:28.977Z,65.65
2018-09-04T04:37:00.156Z,65.75
2018-09-04T04:37:31.371Z,65.92
2018-09-04T04:38:02.530Z,65.42
2018-09-04T04:38:33.684Z,64.80
2018-09-04T04:39:04.877Z,64.43
2018-09-04T04:39:36.097Z,64.01
2018-09-04T04:40:07.289Z,63.89
2018-09-04T04:40:38.379Z,63.66
2018-09-04T04:41:09.550Z,63.61
2018-09-04T04:41:40.673Z,63.11
2018-09-04T04:42:11.819Z,63.40
2018-09-04T04:42:42.989Z,63.35
2018-09-04T04:43:14.164Z,62.53
2018-09-04T04:43:45.348Z,63.14
2018-09-04T04:44:16.521Z,62.78
2018-09-04T04:44:47.700Z,62.35
2018-09-04T04:45:18.865Z,62.06
2018-09-04T04:45:50.091Z,61.85
2018-09-04T04:46:21.257Z,62.06
2018-09-04T04:46:52.426Z,61.98
2018-09-04T04:47:23.545Z,62.06
2018-09-04T04:47:54.741Z,61.50
2018-09-04T04:48:25.980Z,62.06
2018-09-04T04:48:57.133Z,61.16
2018-09-04T04:49:28.314Z,60.85
2018-09-04T04:49:59.545Z,60.27
2018-09-04T04:50:30.761Z,59.92
2018-09-04T04:51:01.890Z,60.48
2018-09-04T04:51:33.005Z,59.89
2018-09-04T04:52:04.112Z,60.29
2018-09-04T04:52:35.245Z,60.32
2018-09-04T04:53:06.430Z,60.06
2018-09-04T04:53:37.556Z,60.25
2018-09-04T04:54:08.668Z,59.47
2018-09-04T04:54:39.836Z,59.87
2018-09-04T04:55:11.077Z,59.58
2018-09-04T04:55:42.232Z,59.91
2018-09-04T04:56:13.339Z,58.97
2018-09-04T04:56:44.534Z,58.70
2018-09-04T04:57:15.729Z,58.57
2018-09-04T04:57:46.897Z,58.42
2018-09-04T04:58:18.080Z,59.28
2018-09-04T04:58:49.209Z,58.52
2018-09-04T04:59:20.401Z,58.83
2018-09-04T04:59:51.537Z,57.99
2018-09-04T05:00:22.805Z,58.46
2018-09-04T05:00:54.017Z,58.16
2018-09-04T05:01:25.198Z,57.85
2018-09-04T05:01:56.324Z,58.04
2018-09-04T05:02:27.481Z,57.13
2018-09-04T05:02:58.666Z,56.63
2018-09-04T05:03:29.785Z,56.62
2018-09-04T05:04:01.015Z,56.70
2018-09-04T05:04:32.201Z,56.48
2018-09-04T05:05:03.417Z,57.04
2018-09-04T05:05:34.606Z,56.79
2018-09-04T05:06:05.791Z,56.18
2018-09-04T05:06:36.927Z,56.80
2018-09-04T05:07:08.150Z,56.83
2018-09-04T05:07:39.329Z,56.62
2018-09-04T05:08:10.448Z,56.90
2018-09-04T05:08:41.568Z,56.95
2018-09-04T05:09:12.802Z,56.41
2018-09-04T05:09:43.981Z,55.66
2018-09-04T05:10:15.171Z,55.56
2018-09-04T05:10:46.293Z,56.71
2018-09-04T05:11:17.478Z,55.21
2018-09-04T05:11:48.590Z,55.79
2018-09-04T05:12:19.814Z,55.69
2018-09-04T05:12:50.940Z,55.62
2018-09-04T05:13:22.062Z,56.62
2018-09-04T05:13:53.233Z,55.85
2018-09-04T05:14:24.368Z,56.45
2018-09-04T05:14:55.492Z,55.34
2018-09-04T05:15:26.692Z,55.49
2018-09-04T05:15:57.860Z,55.57
2018-09-04T05:16:28.989Z,55.57
2018-09-04T05:17:00.108Z,55.28
2018-09-04T05:17:31.328Z,55.93
2018-09-04T05:18:02.509Z,55.90
2018-09-04T05:18:33.648Z,55.75
2018-09-04T05:19:04.812Z,56.76
2018-09-04T05:19:35.948Z,54.78
2018-09-04T05:20:07.121Z,55.07
2018-09-04T05:20:38.313Z,55.67
2018-09-04T05:21:09.441Z,55.48
2018-09-04T05:21:40.601Z,55.47
2018-09-04T05:22:11.797Z,55.88
2018-09-04T05:22:43.082Z,56.01
2018-09-04T05:23:14.242Z,54.89
2018-09-04T05:23:45.428Z,54.95
2018-09-04T05:24:16.608Z,54.83
2018-09-04T05:24:47.738Z,54.80
2018-09-04T05:25:18.929Z,54.77
2018-09-04T05:25:50.054Z,54.56
2018-09-04T05:26:21.527Z,54.64
2018-09-04T05:26:52.643Z,54.59
2018-09-04T05:27:23.770Z,54.54
2018-09-04T05:27:54.940Z,54.57
2018-09-04T05:28:26.060Z,54.50
2018-09-04T05:28:57.238Z,54.55
2018-09-04T05:29:28.455Z,54.71
2018-09-04T05:29:59.601Z,55.13
2018-09-04T05:30:30.736Z,54.81
2018-09-04T05:31:01.920Z,54.44
2018-09-04T05:31:33.035Z,54.46
2018-09-04T05:32:04.155Z,54.56
2018-09-04T05:32:35.273Z,54.32
2018-09-04T05:33:06.532Z,53.90
2018-09-04T05:33:37.652Z,53.88
2018-09-04T05:34:08.824Z,53.97
2018-09-04T05:34:39.943Z,53.87
2018-09-04T05:35:11.172Z,53.93
2018-09-04T05:35:42.355Z,54.01
2018-09-04T05:36:13.527Z,54.09
2018-09-04T05:36:44.756Z,54.08
2018-09-04T05:37:15.893Z,54.03
2018-09-04T05:37:47.026Z,53.85
2018-09-04T05:38:18.187Z,53.93
2018-09-04T05:38:49.477Z,53.86
2018-09-04T05:39:20.662Z,54.25
2018-09-04T05:39:51.794Z,53.86
2018-09-04T05:40:22.973Z,54.36
2018-09-04T05:40:54.196Z,54.58
2018-09-04T05:41:25.361Z,54.64
2018-09-04T05:41:56.548Z,54.94
2018-09-04T05:42:27.721Z,54.85
2018-09-04T05:42:58.907Z,54.90
2018-09-04T05:43:30.060Z,54.52
2018-09-04T05:44:01.237Z,54.47
2018-09-04T05:44:32.426Z,54.04
2018-09-04T05:45:03.573Z,53.93
2018-09-04T05:45:34.691Z,53.75
2018-09-04T05:46:05.872Z,53.80
2018-09-04T05:46:37.057Z,53.26
2018-09-04T05:47:08.178Z,53.94
2018-09-04T05:47:39.305Z,53.67
2018-09-04T05:48:10.440Z,53.99
2018-09-04T05:48:41.632Z,53.41
2018-09-04T05:49:12.808Z,53.75
2018-09-04T05:49:44.048Z,53.99
2018-09-04T05:50:15.178Z,53.86
2018-09-04T05:50:46.403Z,54.01
2018-09-04T05:51:17.620Z,54.05
2018-09-04T05:51:48.752Z,53.99
2018-09-04T05:52:20.001Z,53.83
2018-09-04T05:52:51.199Z,54.00
2018-09-04T05:53:22.320Z,53.75
2018-09-04T05:53:53.639Z,53.79
2018-09-04T05:54:24.827Z,54.29
2018-09-04T05:54:55.987Z,54.35
2018-09-04T05:55:27.456Z,54.29
2018-09-04T05:55:58.581Z,53.85
2018-09-04T05:56:29.726Z,53.72
2018-09-04T05:57:00.982Z,53.90
2018-09-04T05:57:32.186Z,53.81
2018-09-04T05:58:03.315Z,53.25
2018-09-04T05:58:34.573Z,53.92
2018-09-04T05:59:05.852Z,53.87
2018-09-04T05:59:36.993Z,53.99
2018-09-04T06:00:08.271Z,54.19
2018-09-04T06:00:39.469Z,54.07
2018-09-04T06:01:10.654Z,53.79
2018-09-04T06:01:41.826Z,53.33
2018-09-04T06:02:13.083Z,53.97
2018-09-04T06:02:44.549Z,54.15
2018-09-04T06:03:15.784Z,53.59
2018-09-04T06:03:47.065Z,53.69
2018-09-04T06:04:18.260Z,53.62
2018-09-04T06:04:49.412Z,54.45
2018-09-04T06:05:20.679Z,54.18
2018-09-04T06:05:51.876Z,53.82
2018-09-04T06:06:23.748Z,53.56
2018-09-04T06:06:54.930Z,53.78
2018-09-04T06:07:26.051Z,53.60
2018-09-04T06:07:57.176Z,53.48
2018-09-04T06:08:28.309Z,53.35
2018-09-04T06:08:59.429Z,53.08
2018-09-04T06:09:30.640Z,53.59
2018-09-04T06:10:01.881Z,53.44
2018-09-04T06:10:33.088Z,53.49
2018-09-04T06:11:04.333Z,53.46
2018-09-04T06:11:35.497Z,53.08
2018-09-04T06:12:06.726Z,53.64
2018-09-04T06:12:37.986Z,53.88
2018-09-04T06:13:09.168Z,54.05
2018-09-04T06:13:40.354Z,53.63
2018-09-04T06:14:11.444Z,53.61
2018-09-04T06:14:42.688Z,54.24
2018-09-04T06:15:14.826Z,53.76
2018-09-04T06:15:46.106Z,54.05
2018-09-04T06:16:17.234Z,53.92
2018-09-04T06:16:48.461Z,54.07
2018-09-04T06:17:19.697Z,54.12
2018-09-04T06:17:50.842Z,53.75
2018-09-04T06:18:22.022Z,53.76
2018-09-04T06:18:53.146Z,53.92
2018-09-04T06:19:24.426Z,53.63
2018-09-04T06:19:55.664Z,53.41
2018-09-04T06:20:26.883Z,53.63
2018-09-04T06:20:58.021Z,53.41
2018-09-04T06:21:29.283Z,53.37
2018-09-04T06:22:00.538Z,53.56
2018-09-04T06:22:31.857Z,53.58
2018-09-04T06:23:03.060Z,53.48
2018-09-04T06:23:34.290Z,53.55
2018-09-04T06:24:05.480Z,53.76
2018-09-04T06:24:36.664Z,53.53
2018-09-04T06:25:07.922Z,53.67
2018-09-04T06:25:39.084Z,53.70
2018-09-04T06:26:10.286Z,53.75
2018-09-04T06:26:41.471Z,53.58
2018-09-04T06:27:12.668Z,53.52
2018-09-04T06:27:43.807Z,53.39
2018-09-04T06:28:14.960Z,53.44
2018-09-04T06:28:46.149Z,52.92
2018-09-04T06:29:17.288Z,53.39
2018-09-04T06:29:48.497Z,53.45
2018-09-04T06:30:19.632Z,53.18
2018-09-04T06:30:50.866Z,53.55
2018-09-04T06:31:22.066Z,53.02
2018-09-04T06:31:53.347Z,53.09
2018-09-04T06:32:24.630Z,52.93
2018-09-04T06:32:55.846Z,53.00
2018-09-04T06:33:27.009Z,53.36
2018-09-04T06:33:58.246Z,53.47
2018-09-04T06:34:29.378Z,53.38
2018-09-04T06:35:00.553Z,53.43
2018-09-04T06:35:33.000Z,53.60
2018-09-04T06:36:04.141Z,52.87
2018-09-04T06:36:35.413Z,53.21
2018-09-04T06:37:06.547Z,53.46
2018-09-04T06:37:37.712Z,53.60
2018-09-04T06:38:09.017Z,53.92
2018-09-04T06:38:40.212Z,53.66
2018-09-04T06:39:11.335Z,53.86
2018-09-04T06:39:42.548Z,53.73
2018-09-04T06:40:13.821Z,53.44
2018-09-04T06:40:45.020Z,53.39
2018-09-04T06:41:16.187Z,53.15